createdAt,value
2018-12-18T00:01:00.881Z,100823.91
2018-12-18T00:04:07.829Z,100828.67
2018-12-18T00:07:19.391Z,100829.97
2018-12-18T00:10:35.372Z,100829.07
2018-12-18T00:13:40.174Z,100824.69
2018-12-18T00:16:45.110Z,100829.51
2018-12-18T00:19:49.799Z,100822.95
2018-12-18T00:23:01.860Z,100817.66
2018-12-18T00:26:12.450Z,100819.81
2018-12-18T00:29:24.625Z,100820.72
2018-12-18T00:32:29.559Z,100820.27
2018-12-18T00:35:34.520Z,100819.41
2018-12-18T00:38:41.716Z,100825.14
2018-12-18T00:41:47.413Z,100826.88
2018-12-18T00:44:53.360Z,100822.95
2018-12-18T00:48:03.175Z,100820.31
2018-12-18T00:51:08.301Z,100816.78
2018-12-18T00:54:13.253Z,100822.98
2018-12-18T00:57:18.126Z,100819.50
2018-12-18T01:00:23.132Z,100819.00
2018-12-18T01:03:36.107Z,100817.68
2018-12-18T01:06:41.240Z,100826.44
2018-12-18T01:09:46.927Z,100817.14
2018-12-18T01:12:52.108Z,100821.59
2018-12-18T01:16:02.139Z,100832.57
2018-12-18T01:19:19.296Z,100828.49
2018-12-18T01:22:25.829Z,100832.12
2018-12-18T01:25:32.239Z,100833.06
2018-12-18T01:28:38.444Z,100830.87
2018-12-18T01:31:43.313Z,100834.42
2018-12-18T01:34:50.383Z,100836.57
2018-12-18T01:38:02.329Z,100831.35
2018-12-18T01:41:23.745Z,100829.61
2018-12-18T01:44:41.114Z,100830.48
2018-12-18T01:47:47.282Z,100828.72
2018-12-18T01:50:52.392Z,100831.30
2018-12-18T01:54:04.527Z,100743.66
2018-12-18T01:57:09.723Z,100839.17
2018-12-18T02:00:20.273Z,100849.20
2018-12-18T02:03:37.049Z,100847.72
2018-12-18T02:06:43.138Z,100848.70
2018-12-18T02:09:49.415Z,100851.27
2018-12-18T02:13:04.790Z,100845.07
2018-12-18T02:16:18.703Z,100834.73
2018-12-18T02:19:35.322Z,100836.83
2018-12-18T02:22:40.456Z,100835.44
2018-12-18T02:25:45.571Z,100828.95
2018-12-18T02:28:50.746Z,100822.83
2018-12-18T02:31:56.669Z,100825.74
2018-12-18T02:35:01.806Z,100819.13
2018-12-18T02:38:06.807Z,100814.66
2018-12-18T02:41:20.058Z,100821.76
2018-12-18T02:44:25.538Z,100822.63
2018-12-18T02:47:30.484Z,100809.35
2018-12-18T02:50:35.515Z,100804.44
2018-12-18T02:53:40.503Z,100802.75
2018-12-18T02:56:45.399Z,100810.09
2018-12-18T03:00:01.448Z,100803.52
2018-12-18T03:06:35.412Z,100832.52
2018-12-18T03:09:40.465Z,100839.45
2018-12-18T03:30:29.176Z,100844.08
2018-12-18T03:36:47.698Z,100837.95
2018-12-18T03:39:52.058Z,100836.52
2018-12-18T03:42:56.477Z,100834.01
2018-12-18T03:46:00.817Z,100827.81
2018-12-18T03:49:05.297Z,100821.60
2018-12-18T03:52:09.675Z,100831.64
2018-12-18T03:55:14.295Z,100831.27
2018-12-18T03:58:21.122Z,100840.84
2018-12-18T04:01:25.778Z,100838.19
2018-12-18T04:04:35.552Z,100828.51
2018-12-18T04:07:37.851Z,100828.69
2018-12-18T04:10:42.311Z,100826.97
2018-12-18T04:13:46.695Z,100830.36
2018-12-18T04:16:51.030Z,100825.58
2018-12-18T04:19:55.501Z,100823.34
2018-12-18T04:23:00.805Z,100823.31
2018-12-18T04:26:05.390Z,100814.14
2018-12-18T04:29:09.679Z,100822.08
2018-12-18T04:32:14.327Z,100822.38
2018-12-18T04:35:18.620Z,100820.64
2018-12-18T04:38:23.099Z,100820.27
2018-12-18T04:41:27.429Z,100810.16
2018-12-18T04:44:31.719Z,100820.34
2018-12-18T04:47:36.066Z,100807.63
2018-12-18T04:50:40.359Z,100817.64
2018-12-18T04:53:44.483Z,100817.22
2018-12-18T04:56:48.982Z,100809.38
2018-12-18T04:59:52.509Z,100816.33
2018-12-18T05:02:56.070Z,100812.02
2018-12-18T05:05:59.461Z,100816.81
2018-12-18T05:09:05.726Z,100811.95
2018-12-18T05:12:10.630Z,100808.11
2018-12-18T05:15:14.214Z,100811.61
2018-12-18T05:18:17.608Z,100805.97
2018-12-18T05:21:21.128Z,100816.41
2018-12-18T05:24:24.734Z,100809.30
2018-12-18T05:27:28.100Z,100815.00
2018-12-18T05:30:31.543Z,100812.31
2018-12-18T05:33:35.422Z,100800.16
2018-12-18T05:36:38.886Z,100805.48
2018-12-18T05:39:42.562Z,100802.38
2018-12-18T05:42:45.987Z,100807.98
2018-12-18T05:45:49.511Z,100796.71
2018-12-18T05:48:53.114Z,100809.19
2018-12-18T05:51:56.466Z,100805.34
2018-12-18T05:54:59.858Z,100811.92
2018-12-18T05:58:03.363Z,100816.25
2018-12-18T06:01:06.826Z,100819.36
2018-12-18T06:04:10.245Z,100814.95
2018-12-18T06:07:13.592Z,100827.63
2018-12-18T06:10:16.975Z,100821.91
2018-12-18T06:13:20.340Z,100818.45
2018-12-18T06:16:24.407Z,100822.70
2018-12-18T06:19:27.779Z,100823.62
2018-12-18T06:22:31.129Z,100812.78
2018-12-18T06:25:34.528Z,100809.33
2018-12-18T06:28:37.869Z,100814.47
2018-12-18T06:31:41.278Z,100815.41
2018-12-18T06:34:44.699Z,100810.58
2018-12-18T06:37:48.051Z,100810.13
2018-12-18T06:40:51.463Z,100814.95
2018-12-18T06:43:54.981Z,100813.77
2018-12-18T06:46:58.346Z,100801.78
2018-12-18T06:50:01.778Z,100814.41
2018-12-18T06:53:05.197Z,100805.23
2018-12-18T06:56:08.570Z,100816.20
2018-12-18T06:59:11.965Z,100813.58
2018-12-18T07:02:15.378Z,100812.70
2018-12-18T07:05:18.804Z,100815.80
2018-12-18T07:08:22.166Z,100817.55
2018-12-18T07:11:25.562Z,100824.12
2018-12-18T07:14:28.992Z,100821.60
2018-12-18T07:17:32.363Z,100824.66
2018-12-18T07:20:35.730Z,100814.16
2018-12-18T07:23:39.123Z,100813.70
2018-12-18T07:26:42.531Z,100822.01
2018-12-18T07:29:45.909Z,100824.66
2018-12-18T07:32:49.293Z,100822.03
2018-12-18T07:35:52.739Z,100826.06
2018-12-18T07:38:56.282Z,100829.06
2018-12-18T07:41:59.662Z,100816.53
2018-12-18T07:45:03.859Z,100822.56
2018-12-18T07:48:07.410Z,100805.11
2018-12-18T07:51:10.794Z,100790.22
2018-12-18T07:54:14.187Z,100784.97
2018-12-18T07:57:17.578Z,100780.88
2018-12-18T08:00:21.174Z,100783.38
2018-12-18T08:03:24.598Z,100777.36
2018-12-18T08:06:28.017Z,100766.25
2018-12-18T08:09:31.551Z,100770.56
2018-12-18T08:12:36.110Z,100769.71
2018-12-18T08:15:39.479Z,100775.30
2018-12-18T08:18:42.895Z,100778.88
2018-12-18T08:21:46.299Z,100763.99
2018-12-18T08:24:49.686Z,100760.92
2018-12-18T08:27:53.107Z,100764.85
2018-12-18T08:30:56.506Z,100766.12
2018-12-18T08:33:59.924Z,100771.34
2018-12-18T08:37:03.362Z,100766.18
2018-12-18T08:40:08.188Z,100760.95
2018-12-18T08:43:11.718Z,100768.31
2018-12-18T08:46:15.246Z,100766.11
2018-12-18T08:49:18.754Z,100769.22
2018-12-18T08:52:22.755Z,100776.72
2018-12-18T08:55:26.161Z,100773.22
2018-12-18T08:58:29.703Z,100773.17
2018-12-18T09:01:33.247Z,100767.65
2018-12-18T09:04:36.746Z,100765.87
2018-12-18T09:07:40.155Z,100753.55
2018-12-18T09:10:43.558Z,100744.93
2018-12-18T09:13:46.966Z,100742.46
2018-12-18T09:16:57.351Z,100745.62
2018-12-18T09:20:02.116Z,100741.29
2018-12-18T09:23:05.811Z,100729.48
2018-12-18T09:26:09.271Z,100733.77
2018-12-18T09:29:12.710Z,100730.73
2018-12-18T09:32:16.055Z,100719.72
2018-12-18T09:35:19.460Z,100722.66
2018-12-18T09:38:28.661Z,100722.23
2018-12-18T09:41:37.764Z,100718.75
2018-12-18T09:44:41.167Z,100726.65
2018-12-18T09:47:44.579Z,100727.06
2018-12-18T09:50:47.958Z,100722.33
2018-12-18T09:53:51.343Z,100712.72
2018-12-18T09:56:54.731Z,100713.60
2018-12-18T09:59:59.282Z,100715.39
2018-12-18T10:03:02.792Z,100721.13
2018-12-18T10:06:06.211Z,100715.42
2018-12-18T10:09:10.013Z,100715.89
2018-12-18T10:15:35.675Z,100714.55
2018-12-18T10:18:39.999Z,100710.20
2018-12-18T10:21:44.314Z,100705.83
2018-12-18T10:24:48.645Z,100697.07
2018-12-18T10:27:53.006Z,100699.30
2018-12-18T10:30:57.364Z,100698.45
2018-12-18T10:34:01.685Z,100681.81
2018-12-18T10:37:06.115Z,100678.77
2018-12-18T10:40:11.444Z,100681.41
2018-12-18T10:43:15.936Z,100683.14
2018-12-18T10:46:20.316Z,100675.73
2018-12-18T10:49:24.342Z,100672.62
2018-12-18T10:52:27.739Z,100659.09
2018-12-18T10:55:31.105Z,100661.32
2018-12-18T10:58:34.587Z,100648.59
2018-12-18T11:01:43.654Z,100646.83
2018-12-18T11:04:47.043Z,100631.47
2018-12-18T11:07:50.432Z,100626.72
2018-12-18T11:10:53.865Z,100627.11
2018-12-18T11:13:57.267Z,100612.68
2018-12-18T11:17:00.685Z,100599.97
2018-12-18T11:20:05.769Z,100598.22
2018-12-18T11:23:09.189Z,100591.22
2018-12-18T11:26:12.579Z,100578.03
2018-12-18T11:29:16.103Z,100571.88
2018-12-18T11:32:19.489Z,100562.27
2018-12-18T11:35:22.926Z,100560.95
2018-12-18T11:38:26.340Z,100559.19
2018-12-18T11:41:29.741Z,100564.47
2018-12-18T11:44:33.139Z,100556.99
2018-12-18T11:47:36.530Z,100550.41
2018-12-18T11:50:39.968Z,100550.42
2018-12-18T11:53:43.432Z,100533.30
2018-12-18T11:56:46.800Z,100522.33
2018-12-18T11:59:50.229Z,100512.73
2018-12-18T12:02:53.610Z,100512.71
2018-12-18T12:05:59.047Z,100512.30
2018-12-18T12:09:03.571Z,100505.27
2018-12-18T12:12:09.002Z,100509.17
2018-12-18T12:15:13.190Z,100513.58
2018-12-18T12:18:16.575Z,100510.95
2018-12-18T12:21:19.994Z,100503.03
2018-12-18T12:24:23.433Z,100499.09
2018-12-18T12:28:31.282Z,100496.03
2018-12-18T12:31:34.677Z,100493.85
2018-12-18T12:34:38.057Z,100493.84
2018-12-18T12:37:41.418Z,100498.24
2018-12-18T12:40:44.814Z,100489.38
2018-12-18T12:43:48.355Z,100489.00
2018-12-18T12:46:51.865Z,100492.93
2018-12-18T12:49:55.224Z,100489.00
2018-12-18T12:52:58.644Z,100483.74
2018-12-18T15:07:48.299Z,100327.78
2018-12-18T15:10:51.545Z,100334.29
2018-12-18T15:13:54.896Z,100330.43
2018-12-18T15:16:58.108Z,100333.53
2018-12-18T15:20:01.348Z,100326.53
2018-12-18T15:23:04.597Z,100324.34
2018-12-18T15:26:07.820Z,100318.24
2018-12-18T15:29:11.035Z,100311.66
2018-12-18T15:32:14.266Z,100312.53
2018-12-18T15:35:17.640Z,100312.98
2018-12-18T15:38:20.865Z,100313.44
2018-12-18T15:41:24.097Z,100309.49
2018-12-18T15:44:27.316Z,100320.42
2018-12-18T15:47:30.632Z,100306.84
2018-12-18T16:24:45.310Z,100294.16
2018-12-18T16:31:10.933Z,100297.67
2018-12-18T16:34:14.333Z,100289.36
2018-12-18T16:37:23.063Z,100289.34
2018-12-18T16:40:22.921Z,100278.42
2018-12-18T16:43:26.153Z,100253.45
2018-12-18T16:46:29.392Z,100247.34
2018-12-18T16:49:32.745Z,100223.28
2018-12-18T16:52:36.030Z,100217.58
2018-12-18T16:55:39.426Z,100203.98
2018-12-18T16:58:42.738Z,100195.22
2018-12-18T17:01:45.965Z,100203.10
2018-12-18T17:04:49.284Z,100200.94
2018-12-18T17:07:52.488Z,100187.35
2018-12-18T17:10:56.314Z,100189.56
2018-12-18T17:13:59.624Z,100180.78
2018-12-18T17:17:02.942Z,100168.96
2018-12-18T17:20:07.069Z,100174.26
2018-12-18T17:23:11.016Z,100151.48
2018-12-18T17:26:15.686Z,100152.81
2018-12-18T17:29:19.248Z,100149.75
2018-12-18T17:32:22.480Z,100151.49
2018-12-18T17:35:25.698Z,100151.50
2018-12-18T17:38:28.957Z,100148.83
2018-12-18T17:42:56.801Z,100154.12
2018-12-18T17:46:00.019Z,100144.50
2018-12-18T17:49:03.383Z,100144.45
2018-12-18T17:52:06.613Z,100155.00
2018-12-18T17:55:09.862Z,100153.69
2018-12-18T17:58:13.520Z,100147.02
2018-12-18T18:01:16.764Z,100134.41
2018-12-18T18:04:19.976Z,100115.60
2018-12-18T18:07:23.189Z,100106.83
2018-12-18T18:10:26.557Z,100112.53
2018-12-18T18:13:29.900Z,100104.23
2018-12-18T18:16:33.125Z,100109.47
2018-12-18T18:19:36.353Z,100098.52
2018-12-18T18:22:39.884Z,100097.19
2018-12-18T18:25:43.505Z,100096.36
2018-12-18T18:28:46.710Z,100081.44
2018-12-18T18:31:51.076Z,100074.87
2018-12-18T18:34:54.297Z,100062.66
2018-12-18T18:37:57.668Z,100065.27
2018-12-18T18:41:00.901Z,100047.31
2018-12-18T18:44:04.489Z,100058.28
2018-12-18T18:47:07.758Z,100038.12
2018-12-18T18:50:11.105Z,100022.36
2018-12-18T18:53:14.370Z,100010.56
2018-12-18T18:56:18.088Z,100010.14
2018-12-18T18:59:21.326Z,100004.90
2018-12-18T19:02:24.630Z,100004.86
2018-12-18T19:05:27.848Z,100011.45
2018-12-18T19:08:31.094Z,100003.57
2018-12-18T19:11:34.325Z,100004.90
2018-12-18T19:14:37.752Z,99992.17
2018-12-18T19:17:40.989Z,99993.48
2018-12-18T19:20:44.268Z,99976.45
2018-12-18T19:23:47.782Z,99967.67
2018-12-18T19:26:51.018Z,99953.23
2018-12-18T19:29:54.373Z,99937.94
2018-12-18T19:32:57.661Z,99940.94
2018-12-18T19:36:00.889Z,99940.97
2018-12-18T19:39:07.650Z,99950.56
2018-12-18T19:42:13.272Z,99947.07
2018-12-18T19:45:16.708Z,99949.26
2018-12-18T19:48:20.291Z,99948.34
2018-12-18T19:51:23.529Z,99954.44
2018-12-18T19:54:26.775Z,99954.00
2018-12-18T19:57:31.689Z,99952.73
2018-12-18T20:00:35.010Z,99954.41
2018-12-18T20:03:38.360Z,99953.56
2018-12-18T20:06:41.755Z,99956.59
2018-12-18T20:09:45.097Z,99952.66
2018-12-18T20:12:48.461Z,99949.59
2018-12-18T20:15:51.695Z,99944.34
2018-12-18T20:18:55.489Z,99949.52
2018-12-18T20:21:58.795Z,99952.22
2018-12-18T20:25:02.021Z,99949.19
2018-12-18T20:28:06.038Z,99930.84
2018-12-18T20:31:09.313Z,99932.59
2018-12-18T20:34:13.385Z,99917.63
2018-12-18T20:37:18.401Z,99916.36
2018-12-18T20:40:22.002Z,99901.91
2018-12-18T20:43:25.224Z,99902.31
2018-12-18T20:46:28.503Z,99900.59
2018-12-18T20:49:31.820Z,99894.03
2018-12-18T20:52:35.145Z,99883.12
2018-12-18T20:55:38.383Z,99864.75
2018-12-18T20:58:41.683Z,99870.44
2018-12-18T21:01:44.932Z,99880.47
2018-12-18T21:04:51.077Z,99880.90
2018-12-18T21:07:54.746Z,99898.84
2018-12-18T21:10:58.141Z,99892.72
2018-12-18T21:14:01.385Z,99886.11
2018-12-18T21:17:04.776Z,99880.94
2018-12-18T21:20:08.667Z,99883.12
2018-12-18T21:23:12.012Z,99874.77
2018-12-18T21:26:15.356Z,99870.39
2018-12-18T21:29:18.718Z,99855.91
2018-12-18T21:32:22.166Z,99843.73
2018-12-18T21:35:25.524Z,99834.49
2018-12-18T21:38:30.409Z,99814.31
2018-12-18T21:41:33.967Z,99819.22
2018-12-18T21:44:37.429Z,99797.68
2018-12-18T21:47:40.614Z,99795.58
2018-12-18T21:50:43.809Z,99795.14
2018-12-18T21:53:47.013Z,99786.41
2018-12-18T21:56:50.266Z,99790.41
2018-12-18T21:59:53.773Z,99784.15
2018-12-18T22:02:56.965Z,99784.20
2018-12-18T22:06:00.193Z,99768.93
2018-12-18T22:09:05.728Z,99765.83
2018-12-18T22:12:11.019Z,99754.48
2018-12-18T22:15:14.201Z,99750.11
2018-12-18T22:18:17.389Z,99740.48
2018-12-18T22:21:20.573Z,99742.19
2018-12-18T22:24:23.839Z,99746.12
2018-12-18T22:27:27.075Z,99737.81
2018-12-18T22:30:30.552Z,99730.81
2018-12-18T22:33:33.753Z,99737.86
2018-12-18T22:36:36.994Z,99727.35
2018-12-18T22:39:40.216Z,99710.28
2018-12-18T22:42:43.431Z,99717.66
2018-12-18T22:45:46.635Z,99692.72
2018-12-18T22:48:49.809Z,99683.09
2018-12-18T22:51:53.017Z,99676.54
2018-12-18T22:54:56.212Z,99672.14
2018-12-18T22:57:59.625Z,99673.90
2018-12-18T23:04:27.020Z,99668.59
2018-12-18T23:07:30.288Z,99683.42
2018-12-18T23:10:35.512Z,99679.53
2018-12-18T23:13:38.943Z,99671.11
2018-12-18T23:16:42.150Z,99665.34
2018-12-18T23:19:45.380Z,99653.52
2018-12-18T23:22:48.587Z,99644.77
2018-12-18T23:25:51.790Z,99646.46
2018-12-18T23:28:55.212Z,99639.36
2018-12-18T23:31:58.415Z,99637.05
2018-12-18T23:35:01.595Z,99624.97
2018-12-18T23:38:04.851Z,99632.45
2018-12-18T23:41:08.052Z,99625.92
2018-12-18T23:44:11.388Z,99631.91
2018-12-18T23:47:14.710Z,99626.93
2018-12-18T23:50:17.905Z,99632.10
2018-12-18T23:53:21.124Z,99600.12
2018-12-18T23:56:24.312Z,99605.89
2018-12-18T23:59:27.508Z,99600.92
